createdAt,value
2018-07-27T00:01:50.463Z,6.30
2018-07-27T00:04:18.113Z,6.90
2018-07-27T00:06:45.675Z,7.33
2018-07-27T00:09:13.312Z,6.40
2018-07-27T00:11:41.939Z,6.50
2018-07-27T00:14:09.569Z,7.40
2018-07-27T00:16:37.160Z,7.53
2018-07-27T00:19:05.279Z,6.63
2018-07-27T00:21:33.228Z,7.40
2018-07-27T00:24:00.862Z,6.50
2018-07-27T00:26:28.771Z,6.40
2018-07-27T00:28:56.354Z,6.50
2018-07-27T00:31:23.949Z,6.60
2018-07-27T00:33:51.627Z,7.47
2018-07-27T00:36:19.356Z,6.80
2018-07-27T00:38:47.057Z,7.17
2018-07-27T00:41:14.734Z,6.57
2018-07-27T00:43:42.385Z,6.97
2018-07-27T00:46:10.038Z,7.03
2018-07-27T00:48:37.700Z,6.67
2018-07-27T00:51:05.352Z,6.63
2018-07-27T00:53:32.937Z,7.83
2018-07-27T00:56:00.580Z,5.80
2018-07-27T00:58:28.174Z,6.23
2018-07-27T01:00:55.833Z,6.40
2018-07-27T01:03:23.468Z,5.87
2018-07-27T01:05:51.124Z,5.90
2018-07-27T01:08:18.822Z,6.67
2018-07-27T01:10:46.437Z,6.57
2018-07-27T01:13:14.046Z,6.57
2018-07-27T01:15:41.685Z,6.20
2018-07-27T01:18:09.390Z,6.30
2018-07-27T01:20:37.887Z,6.03
2018-07-27T01:23:05.451Z,6.43
2018-07-27T01:25:33.057Z,6.50
2018-07-27T01:28:00.662Z,5.67
2018-07-27T01:30:28.337Z,5.83
2018-07-27T01:32:55.966Z,5.67
2018-07-27T01:35:23.576Z,5.47
2018-07-27T01:37:51.239Z,5.77
2018-07-27T01:40:18.850Z,5.67
2018-07-27T01:42:46.615Z,5.83
2018-07-27T01:45:14.255Z,5.07
2018-07-27T01:47:41.869Z,5.57
2018-07-27T01:50:09.463Z,5.80
2018-07-27T01:52:37.099Z,5.40
2018-07-27T01:55:04.877Z,5.20
2018-07-27T01:57:32.502Z,5.37
2018-07-27T02:00:00.094Z,5.80
2018-07-27T02:02:27.751Z,5.50
2018-07-27T02:04:55.361Z,5.93
2018-07-27T02:07:22.996Z,5.80
2018-07-27T02:09:50.664Z,4.90
2018-07-27T02:12:18.310Z,5.43
2018-07-27T02:14:45.971Z,5.47
2018-07-27T02:17:13.612Z,5.23
2018-07-27T02:19:41.254Z,4.80
2018-07-27T02:22:08.841Z,6.03
2018-07-27T02:24:36.484Z,5.17
2018-07-27T02:27:04.133Z,5.30
2018-07-27T02:29:31.724Z,5.80
2018-07-27T02:31:59.364Z,5.53
2018-07-27T02:34:26.987Z,5.17
2018-07-27T02:36:54.640Z,5.63
2018-07-27T02:39:22.256Z,4.93
2018-07-27T02:41:49.872Z,4.73
2018-07-27T02:44:17.515Z,4.97
2018-07-27T02:46:45.144Z,5.67
2018-07-27T02:49:12.767Z,5.00
2018-07-27T02:51:40.407Z,5.27
2018-07-27T02:54:08.034Z,5.70
2018-07-27T02:56:35.650Z,5.37
2018-07-27T02:59:03.309Z,5.30
2018-07-27T03:01:31.006Z,5.70
2018-07-27T03:03:58.622Z,5.43
2018-07-27T03:06:26.182Z,5.33
2018-07-27T03:08:53.872Z,4.60
2018-07-27T03:11:21.532Z,5.77
2018-07-27T03:13:49.136Z,4.63
2018-07-27T03:16:16.803Z,5.17
2018-07-27T03:18:44.437Z,5.10
2018-07-27T03:21:12.056Z,5.23
2018-07-27T03:23:39.676Z,5.23
2018-07-27T03:26:07.344Z,5.30
2018-07-27T03:28:34.974Z,5.27
2018-07-27T03:31:02.595Z,5.03
2018-07-27T03:33:30.234Z,5.13
2018-07-27T03:35:57.896Z,5.50
2018-07-27T03:38:25.543Z,5.33
2018-07-27T03:40:53.163Z,4.53
2018-07-27T03:43:20.778Z,4.70
2018-07-27T03:45:48.430Z,5.03
2018-07-27T03:48:16.083Z,5.20
2018-07-27T03:50:43.714Z,5.13
2018-07-27T03:53:11.350Z,4.70
2018-07-27T03:55:38.964Z,4.83
2018-07-27T03:58:06.593Z,4.90
2018-07-27T04:00:34.200Z,5.07
2018-07-27T04:03:01.848Z,5.00
2018-07-27T04:05:29.476Z,5.57
2018-07-27T04:07:57.449Z,5.30
2018-07-27T04:10:25.091Z,5.30
2018-07-27T04:12:52.751Z,4.97
2018-07-27T04:15:20.356Z,5.07
2018-07-27T04:17:53.260Z,4.70
2018-07-27T04:20:20.922Z,4.83
2018-07-27T04:22:48.511Z,4.67
2018-07-27T04:25:16.147Z,4.53
2018-07-27T04:27:43.747Z,5.13
2018-07-27T04:30:11.375Z,4.40
2018-07-27T04:32:39.011Z,4.13
2018-07-27T04:35:06.675Z,4.30
2018-07-27T04:37:34.292Z,4.20
2018-07-27T04:40:01.994Z,4.00
2018-07-27T04:42:29.649Z,4.50
2018-07-27T04:44:57.267Z,3.77
2018-07-27T04:47:24.929Z,3.93
2018-07-27T04:49:52.549Z,4.17
2018-07-27T04:52:20.157Z,3.67
2018-07-27T04:54:47.819Z,4.50
2018-07-27T04:57:15.449Z,4.43
2018-07-27T04:59:43.367Z,4.03
2018-07-27T05:02:11.024Z,4.37
2018-07-27T05:04:38.704Z,3.83
2018-07-27T05:07:06.349Z,3.43
2018-07-27T05:09:34.067Z,4.30
2018-07-27T05:12:01.623Z,3.90
2018-07-27T05:14:35.907Z,4.07
2018-07-27T05:17:03.553Z,3.80
2018-07-27T05:19:31.135Z,3.73
2018-07-27T05:21:58.776Z,3.70
2018-07-27T05:24:26.408Z,3.57
2018-07-27T05:26:54.042Z,3.23
2018-07-27T05:29:21.647Z,3.13
2018-07-27T05:31:49.376Z,3.63
2018-07-27T05:34:16.965Z,3.73
2018-07-27T05:36:44.673Z,3.77
2018-07-27T05:39:12.305Z,3.40
2018-07-27T05:41:39.997Z,3.63
2018-07-27T05:44:08.145Z,3.90
2018-07-27T05:46:35.767Z,3.43
2018-07-27T05:49:03.472Z,4.00
2018-07-27T05:51:31.158Z,3.77
2018-07-27T05:53:58.788Z,3.90
2018-07-27T05:56:26.507Z,3.33
2018-07-27T05:58:54.515Z,3.50
2018-07-27T06:01:22.171Z,3.50
2018-07-27T06:03:49.852Z,3.23
2018-07-27T06:06:17.523Z,3.50
2018-07-27T06:08:45.203Z,3.50
2018-07-27T06:11:12.921Z,3.10
2018-07-27T06:13:40.597Z,3.20
2018-07-27T06:16:08.941Z,3.80
2018-07-27T06:18:36.597Z,3.77
2018-07-27T06:21:04.313Z,3.53
2018-07-27T06:23:31.944Z,3.20
2018-07-27T06:25:59.589Z,3.67
2018-07-27T06:28:27.263Z,3.47
2018-07-27T06:30:55.301Z,3.20
2018-07-27T06:33:23.122Z,3.53
2018-07-27T06:35:50.773Z,3.60
2018-07-27T06:38:18.399Z,3.20
2018-07-27T06:40:46.107Z,3.63
2018-07-27T06:43:13.754Z,3.30
2018-07-27T06:45:41.402Z,3.53
2018-07-27T06:48:14.790Z,3.30
2018-07-27T06:50:42.392Z,3.03
2018-07-27T06:53:10.159Z,3.10
2018-07-27T06:55:37.784Z,3.10
2018-07-27T06:58:05.368Z,3.10
2018-07-27T07:00:33.006Z,3.17
2018-07-27T07:03:00.665Z,3.00
2018-07-27T07:05:28.317Z,2.90
2018-07-27T07:07:55.977Z,3.40
2018-07-27T07:10:23.608Z,3.33
2018-07-27T07:12:51.258Z,3.37
2018-07-27T07:15:18.901Z,3.03
2018-07-27T07:17:46.583Z,3.10
2018-07-27T07:20:14.210Z,2.90
2018-07-27T07:22:41.873Z,2.77
2018-07-27T07:25:09.524Z,3.10
2018-07-27T07:27:37.137Z,3.00
2018-07-27T07:30:05.065Z,2.87
2018-07-27T07:32:32.718Z,3.47
2018-07-27T07:35:00.330Z,3.00
2018-07-27T07:37:27.945Z,3.13
2018-07-27T07:39:55.642Z,2.55
2018-07-27T07:42:23.232Z,3.00
2018-07-27T07:44:50.856Z,2.77
2018-07-27T07:47:18.437Z,2.60
2018-07-27T07:49:46.099Z,2.67
2018-07-27T07:52:13.733Z,2.87
2018-07-27T07:54:41.392Z,3.22
2018-07-27T07:57:09.368Z,3.02
2018-07-27T07:59:37.041Z,3.10
2018-07-27T08:02:04.755Z,3.05
2018-07-27T08:04:32.375Z,2.80
2018-07-27T08:07:00.029Z,3.33
2018-07-27T08:09:27.684Z,3.27
2018-07-27T08:11:55.328Z,3.20
2018-07-27T08:14:22.950Z,2.92
2018-07-27T08:16:50.608Z,3.05
2018-07-27T08:19:18.250Z,3.33
2018-07-27T08:21:45.868Z,2.75
2018-07-27T08:24:13.490Z,3.10
2018-07-27T08:26:57.704Z,3.25
2018-07-27T08:29:27.757Z,3.20
2018-07-27T08:31:55.911Z,3.77
2018-07-27T08:34:23.595Z,3.47
2018-07-27T08:36:51.472Z,3.20
2018-07-27T08:39:20.339Z,3.02
2018-07-27T08:41:48.324Z,2.52
2018-07-27T08:44:18.273Z,3.12
2018-07-27T08:46:45.919Z,3.05
2018-07-27T08:49:13.624Z,3.00
2018-07-27T08:51:41.317Z,2.98
2018-07-27T08:54:09.031Z,2.98
2018-07-27T08:56:36.692Z,3.12
2018-07-27T08:59:04.499Z,2.90
2018-07-27T09:01:32.234Z,2.80
2018-07-27T09:03:59.979Z,2.87
2018-07-27T09:06:27.613Z,2.70
2018-07-27T09:08:55.351Z,2.83
2018-07-27T09:11:23.313Z,2.77
2018-07-27T09:13:51.315Z,2.62
2018-07-27T09:16:19.303Z,2.83
2018-07-27T09:18:47.281Z,2.52
2018-07-27T09:21:15.017Z,2.98
2018-07-27T09:23:42.682Z,2.75
2018-07-27T09:26:10.340Z,2.37
2018-07-27T09:28:38.203Z,2.77
2018-07-27T09:31:05.868Z,2.55
2018-07-27T09:33:33.527Z,2.50
2018-07-27T09:36:01.306Z,2.62
2018-07-27T09:38:28.977Z,2.40
2018-07-27T09:40:56.631Z,2.33
2018-07-27T09:43:24.256Z,2.50
2018-07-27T09:45:51.897Z,2.70
2018-07-27T09:48:19.548Z,2.33
2018-07-27T09:50:47.235Z,2.47
2018-07-27T09:53:15.139Z,2.20
2018-07-27T09:55:43.191Z,2.60
2018-07-27T09:58:10.875Z,2.22
2018-07-27T10:00:44.251Z,2.35
2018-07-27T10:03:11.937Z,2.92
2018-07-27T10:05:39.615Z,2.80
2018-07-27T10:08:07.358Z,2.50
2018-07-27T10:10:35.143Z,2.52
2018-07-27T10:13:02.797Z,2.90
2018-07-27T10:15:30.349Z,2.52
2018-07-27T10:17:58.001Z,2.47
2018-07-27T10:20:25.627Z,2.70
2018-07-27T10:22:53.305Z,2.52
2018-07-27T10:25:20.915Z,2.70
2018-07-27T10:27:48.655Z,2.80
2018-07-27T10:30:16.506Z,2.55
2018-07-27T10:32:44.361Z,2.83
2018-07-27T10:35:12.017Z,2.60
2018-07-27T10:37:39.652Z,2.47
2018-07-27T10:40:08.127Z,2.33
2018-07-27T10:42:35.800Z,2.15
2018-07-27T10:45:03.727Z,2.30
2018-07-27T10:47:31.374Z,2.58
2018-07-27T10:49:58.983Z,2.50
2018-07-27T10:52:26.579Z,2.60
2018-07-27T10:54:54.195Z,2.42
2018-07-27T10:57:21.859Z,2.75
2018-07-27T10:59:49.495Z,2.70
2018-07-27T11:02:17.250Z,2.58
2018-07-27T11:04:44.859Z,2.37
2018-07-27T11:07:12.537Z,2.50
2018-07-27T11:09:40.171Z,2.65
2018-07-27T11:12:07.853Z,3.02
2018-07-27T11:14:35.509Z,2.30
2018-07-27T11:17:03.229Z,2.75
2018-07-27T11:19:31.216Z,2.30
2018-07-27T11:21:58.848Z,2.27
2018-07-27T11:24:26.511Z,2.35
2018-07-27T11:26:54.124Z,2.33
2018-07-27T11:29:21.883Z,2.60
2018-07-27T11:31:49.998Z,2.40
2018-07-27T11:34:18.735Z,2.30
2018-07-27T11:36:46.379Z,2.30
2018-07-27T11:39:14.019Z,2.20
2018-07-27T11:41:41.665Z,2.60
2018-07-27T11:44:09.308Z,2.15
2018-07-27T11:46:37.043Z,2.27
2018-07-27T11:49:04.744Z,2.35
2018-07-27T11:51:32.379Z,2.87
2018-07-27T11:54:00.058Z,2.75
2018-07-27T11:56:27.687Z,2.22
2018-07-27T11:58:55.339Z,2.00
2018-07-27T12:01:22.977Z,1.92
2018-07-27T12:03:50.987Z,2.50
2018-07-27T12:06:19.271Z,2.27
2018-07-27T12:08:46.940Z,2.20
2018-07-27T12:11:14.613Z,2.12
2018-07-27T12:13:42.286Z,2.37
2018-07-27T12:16:10.285Z,2.08
2018-07-27T12:18:37.922Z,2.05
2018-07-27T12:21:05.724Z,2.00
2018-07-27T12:23:33.332Z,2.08
2018-07-27T12:26:01.035Z,2.20
2018-07-27T12:28:28.674Z,2.25
2018-07-27T12:30:56.526Z,1.87
2018-07-27T12:33:24.225Z,2.30
2018-07-27T12:35:51.859Z,2.52
2018-07-27T12:38:19.519Z,2.10
2018-07-27T12:40:47.176Z,2.42
2018-07-27T12:43:14.881Z,2.10
2018-07-27T12:45:42.609Z,2.25
2018-07-27T12:48:10.307Z,2.20
2018-07-27T12:50:38.002Z,2.37
2018-07-27T12:53:05.668Z,2.25
2018-07-27T12:55:33.320Z,2.30
2018-07-27T12:58:00.975Z,2.10
2018-07-27T13:00:28.694Z,1.98
2018-07-27T13:02:56.379Z,2.05
2018-07-27T13:05:24.083Z,1.85
2018-07-27T13:07:51.682Z,1.82
2018-07-27T13:10:19.359Z,2.05
2018-07-27T13:12:46.992Z,1.82
2018-07-27T13:15:14.654Z,1.77
2018-07-27T13:17:42.374Z,2.02
2018-07-27T13:20:10.268Z,2.10
2018-07-27T13:22:37.943Z,1.87
2018-07-27T13:25:05.591Z,1.82
2018-07-27T13:27:33.166Z,1.90
2018-07-27T13:30:00.740Z,2.12
2018-07-27T13:32:28.448Z,1.55
2018-07-27T13:34:57.193Z,1.95
2018-07-27T13:37:27.165Z,1.80
2018-07-27T13:39:55.884Z,1.85
2018-07-27T13:42:24.823Z,1.60
2018-07-27T13:44:52.776Z,1.90
2018-07-27T13:47:20.745Z,1.67
2018-07-27T13:49:48.544Z,1.70
2018-07-27T13:52:16.217Z,2.00
2018-07-27T13:54:43.945Z,1.87
2018-07-27T13:57:11.590Z,2.10
2018-07-27T13:59:39.365Z,1.85
2018-07-27T14:02:07.220Z,2.05
2018-07-27T14:04:34.896Z,1.92
2018-07-27T14:07:03.814Z,1.95
2018-07-27T14:09:31.478Z,1.82
2018-07-27T14:11:59.156Z,2.00
2018-07-27T14:14:26.934Z,2.30
2018-07-27T14:16:54.636Z,1.62
2018-07-27T14:19:22.520Z,2.00
2018-07-27T14:21:50.183Z,2.00
2018-07-27T14:24:17.924Z,1.87
2018-07-27T14:26:45.539Z,1.80
2018-07-27T14:29:13.237Z,1.82
2018-07-27T14:31:40.844Z,2.00
2018-07-27T14:34:08.795Z,1.80
2018-07-27T14:36:36.426Z,1.98
2018-07-27T14:39:06.748Z,1.80
2018-07-27T14:41:34.374Z,1.90
2018-07-27T14:44:02.184Z,1.92
2018-07-27T14:46:29.827Z,1.87
2018-07-27T14:48:57.472Z,2.02
2018-07-27T14:51:25.136Z,2.00
2018-07-27T14:53:52.760Z,1.50
2018-07-27T14:56:20.384Z,1.67
2018-07-27T14:58:48.133Z,1.57
2018-07-27T15:01:15.727Z,1.50
2018-07-27T15:03:43.352Z,1.80
2018-07-27T15:06:10.972Z,1.42
2018-07-27T15:08:38.616Z,1.60
2018-07-27T15:11:06.636Z,1.47
2018-07-27T15:13:34.260Z,1.65
2018-07-27T15:16:01.920Z,1.80
2018-07-27T15:18:29.523Z,1.92
2018-07-27T15:20:57.158Z,2.22
2018-07-27T15:23:24.768Z,2.37
2018-07-27T15:25:52.434Z,2.05
2018-07-27T15:28:20.096Z,2.10
2018-07-27T15:30:47.732Z,2.05
2018-07-27T15:33:15.340Z,1.87
2018-07-27T15:35:43.033Z,2.50
2018-07-27T15:38:10.648Z,2.00
2018-07-27T15:40:38.352Z,2.20
2018-07-27T15:43:06.033Z,1.80
2018-07-27T15:45:33.652Z,1.82
2018-07-27T15:48:01.263Z,2.00
2018-07-27T15:50:28.940Z,1.82
2018-07-27T15:52:56.861Z,2.15
2018-07-27T15:55:24.480Z,2.02
2018-07-27T15:57:52.137Z,2.00
2018-07-27T16:00:19.749Z,2.12
2018-07-27T16:02:47.504Z,2.37
2018-07-27T16:05:15.163Z,2.20
2018-07-27T16:07:42.810Z,2.25
2018-07-27T16:10:10.422Z,2.20
2018-07-27T16:12:38.180Z,2.02
2018-07-27T16:15:05.855Z,2.10
2018-07-27T16:17:33.476Z,2.10
2018-07-27T16:20:01.118Z,2.05
2018-07-27T16:22:28.764Z,2.17
2018-07-27T16:24:56.416Z,2.25
2018-07-27T16:27:24.035Z,2.37
2018-07-27T16:29:51.802Z,2.22
2018-07-27T16:32:19.524Z,2.02
2018-07-27T16:34:47.165Z,2.62
2018-07-27T16:37:14.782Z,2.15
2018-07-27T16:39:42.487Z,2.65
2018-07-27T16:42:10.913Z,2.20
2018-07-27T16:44:38.557Z,2.20
2018-07-27T16:47:06.203Z,2.02
2018-07-27T16:49:33.855Z,2.55
2018-07-27T16:52:01.467Z,2.15
2018-07-27T16:54:29.111Z,2.50
2018-07-27T16:56:56.774Z,2.40
2018-07-27T16:59:24.395Z,2.33
2018-07-27T17:01:52.193Z,2.40
2018-07-27T17:04:19.815Z,2.50
2018-07-27T17:06:47.475Z,2.50
2018-07-27T17:09:15.156Z,2.58
2018-07-27T17:11:42.793Z,2.22
2018-07-27T17:14:10.421Z,2.83
2018-07-27T17:16:38.093Z,2.47
2018-07-27T17:19:05.780Z,2.72
2018-07-27T17:21:33.419Z,2.20
2018-07-27T17:24:01.175Z,2.25
2018-07-27T17:26:28.799Z,2.87
2018-07-27T17:28:56.424Z,2.40
2018-07-27T17:31:24.028Z,2.45
2018-07-27T17:33:51.670Z,2.22
2018-07-27T17:36:19.285Z,2.47
2018-07-27T17:38:46.899Z,2.42
2018-07-27T17:41:14.534Z,2.47
2018-07-27T17:43:42.141Z,2.60
2018-07-27T17:46:09.841Z,2.47
2018-07-27T17:48:37.504Z,2.30
2018-07-27T17:51:05.236Z,2.77
2018-07-27T17:53:32.866Z,2.20
2018-07-27T17:56:00.484Z,2.50
2018-07-27T17:58:28.108Z,2.20
2018-07-27T18:00:55.746Z,2.25
2018-07-27T18:03:23.443Z,2.30
2018-07-27T18:05:51.106Z,2.58
2018-07-27T18:08:18.759Z,2.35
2018-07-27T18:10:46.427Z,2.80
2018-07-27T18:13:14.390Z,2.62
2018-07-27T18:15:42.135Z,2.40
2018-07-27T18:18:09.897Z,1.92
2018-07-27T18:20:37.609Z,2.58
2018-07-27T18:23:05.709Z,2.62
2018-07-27T18:25:33.623Z,2.40
2018-07-27T18:28:01.786Z,2.33
2018-07-27T18:30:29.412Z,2.70
2018-07-27T18:32:57.178Z,2.47
2018-07-27T18:35:25.028Z,2.52
2018-07-27T18:37:52.672Z,2.58
2018-07-27T18:40:20.438Z,2.83
2018-07-27T18:42:48.337Z,2.25
2018-07-27T18:45:16.016Z,2.87
2018-07-27T18:47:43.661Z,2.90
2018-07-27T18:50:11.747Z,3.08
2018-07-27T18:52:39.418Z,2.90
2018-07-27T18:55:07.796Z,2.83
2018-07-27T18:57:35.546Z,2.90
2018-07-27T19:00:03.315Z,2.60
2018-07-27T19:02:31.157Z,2.77
2018-07-27T19:04:58.843Z,3.00
2018-07-27T19:07:26.485Z,3.25
2018-07-27T19:09:54.151Z,3.00
2018-07-27T19:12:21.944Z,4.37
2018-07-27T19:14:49.699Z,4.12
2018-07-27T19:17:17.601Z,4.12
2018-07-27T19:19:45.401Z,4.20
2018-07-27T19:22:13.209Z,3.40
2018-07-27T19:24:40.896Z,4.30
2018-07-27T19:27:08.539Z,4.15
2018-07-27T19:29:36.414Z,4.15
2018-07-27T19:32:04.154Z,4.22
2018-07-27T19:34:31.820Z,5.00
2018-07-27T19:36:59.748Z,4.90
2018-07-27T19:39:27.431Z,4.70
2018-07-27T19:41:55.159Z,4.85
2018-07-27T19:44:22.894Z,5.50
2018-07-27T19:46:50.881Z,5.03
2018-07-27T19:49:18.966Z,4.90
2018-07-27T19:51:46.972Z,4.75
2018-07-27T19:54:14.680Z,5.35
2018-07-27T19:56:42.334Z,5.58
2018-07-27T19:59:10.002Z,5.00
2018-07-27T20:01:37.692Z,5.12
2018-07-27T20:04:05.374Z,5.17
2018-07-27T20:06:33.026Z,4.90
2018-07-27T20:09:00.677Z,4.28
2018-07-27T20:11:28.310Z,4.40
2018-07-27T20:13:55.940Z,4.70
2018-07-27T20:16:23.616Z,4.72
2018-07-27T20:18:51.297Z,4.78
2018-07-27T20:21:18.955Z,4.25
2018-07-27T20:23:46.663Z,4.37
2018-07-27T20:26:14.344Z,3.33
2018-07-27T20:28:41.974Z,3.50
2018-07-27T20:31:09.818Z,3.30
2018-07-27T20:33:37.471Z,2.40
2018-07-27T20:36:05.227Z,2.30
2018-07-27T20:38:32.892Z,1.90
2018-07-27T20:41:00.548Z,2.40
2018-07-27T20:43:28.176Z,2.87
2018-07-27T20:45:55.808Z,3.07
2018-07-27T20:48:23.420Z,3.43
2018-07-27T20:50:51.040Z,2.90
2018-07-27T20:53:18.789Z,3.43
2018-07-27T20:55:46.416Z,3.17
2018-07-27T20:58:14.036Z,2.93
2018-07-27T21:00:41.718Z,3.40
2018-07-27T21:03:09.353Z,3.83
2018-07-27T21:05:36.964Z,3.73
2018-07-27T21:08:04.666Z,3.67
2018-07-27T21:10:32.311Z,3.53
2018-07-27T21:13:00.012Z,3.17
2018-07-27T21:15:27.606Z,2.87
2018-07-27T21:17:55.248Z,3.47
2018-07-27T21:20:22.872Z,3.57
2018-07-27T21:22:50.550Z,2.97
2018-07-27T21:25:18.210Z,3.50
2018-07-27T21:27:45.856Z,3.33
2018-07-27T21:30:13.505Z,2.93
2018-07-27T21:32:41.153Z,3.63
2018-07-27T21:35:08.831Z,3.57
2018-07-27T21:37:36.448Z,3.27
2018-07-27T21:40:04.161Z,3.40
2018-07-27T21:42:31.850Z,3.43
2018-07-27T21:44:59.514Z,2.80
2018-07-27T21:47:27.162Z,2.80
2018-07-27T21:49:54.840Z,3.23
2018-07-27T21:52:22.461Z,2.73
2018-07-27T21:54:50.143Z,2.87
2018-07-27T21:57:17.800Z,3.10
2018-07-27T21:59:45.440Z,3.70
2018-07-27T22:02:13.057Z,3.10
2018-07-27T22:04:40.772Z,2.87
2018-07-27T22:07:08.425Z,3.17
2018-07-27T22:09:36.015Z,3.30
2018-07-27T22:12:03.778Z,3.40
2018-07-27T22:14:31.425Z,3.10
2018-07-27T22:16:59.013Z,3.50
2018-07-27T22:19:26.670Z,2.80
2018-07-27T22:21:54.316Z,3.10
2018-07-27T22:24:21.920Z,2.97
2018-07-27T22:26:49.560Z,2.80
2018-07-27T22:29:17.183Z,3.50
2018-07-27T22:31:44.794Z,3.00
2018-07-27T22:34:12.459Z,2.57
2018-07-27T22:36:40.089Z,3.10
2018-07-27T22:39:09.034Z,3.47
2018-07-27T22:41:37.020Z,2.70
2018-07-27T22:44:04.732Z,3.13
2018-07-27T22:46:32.353Z,2.63
2018-07-27T22:49:00.017Z,3.13
2018-07-27T22:51:27.672Z,2.60
2018-07-27T22:53:55.332Z,3.37
2018-07-27T22:56:23.012Z,2.60
2018-07-27T22:58:50.835Z,2.33
2018-07-27T23:01:18.456Z,3.07
2018-07-27T23:03:46.091Z,3.00
2018-07-27T23:06:13.768Z,3.23
2018-07-27T23:08:41.419Z,3.27
2018-07-27T23:11:09.115Z,3.23
2018-07-27T23:13:36.773Z,3.00
2018-07-27T23:16:04.546Z,3.03
2018-07-27T23:18:32.168Z,3.00
2018-07-27T23:20:59.860Z,3.40
2018-07-27T23:23:27.492Z,3.10
2018-07-27T23:25:55.158Z,2.83
2018-07-27T23:28:22.763Z,3.00
2018-07-27T23:30:50.415Z,2.83
2018-07-27T23:33:18.104Z,2.30
2018-07-27T23:35:45.801Z,3.33
2018-07-27T23:38:13.387Z,2.93
2018-07-27T23:40:41.070Z,3.13
2018-07-27T23:43:08.691Z,3.00
2018-07-27T23:45:36.323Z,3.43
2018-07-27T23:48:04.001Z,3.17
2018-07-27T23:50:31.623Z,2.80
2018-07-27T23:52:59.244Z,3.50
2018-07-27T23:55:26.803Z,3.00
2018-07-27T23:57:54.540Z,3.33
